sensor_id;sensor_type;location;lat;lon;timestamp;temperature;humidity
3860;DHT22;1945;52.036;8.614;2023-03-17T00:02:00;6.70;99.90
3860;DHT22;1945;52.036;8.614;2023-03-17T00:04:28;6.80;99.90
3860;DHT22;1945;52.036;8.614;2023-03-17T00:06:58;6.80;99.90
3860;DHT22;1945;52.036;8.614;2023-03-17T00:09:36;6.80;99.90
3860;DHT22;1945;52.036;8.614;2023-03-17T00:12:14;6.80;99.90
3860;DHT22;1945;52.036;8.614;2023-03-17T00:17:28;6.80;99.90
3860;DHT22;1945;52.036;8.614;2023-03-17T00:20:00;6.80;99.90
3860;DHT22;1945;52.036;8.614;2023-03-17T00:22:29;6.80;99.90
3860;DHT22;1945;52.036;8.614;2023-03-17T00:25:05;6.80;99.90
3860;DHT22;1945;52.036;8.614;2023-03-17T00:27:55;6.70;99.90
3860;DHT22;1945;52.036;8.614;2023-03-17T00:30:26;6.80;99.90
3860;DHT22;1945;52.036;8.614;2023-03-17T00:32:57;6.80;99.90
3860;DHT22;1945;52.036;8.614;2023-03-17T00:35:26;6.70;99.90
3860;DHT22;1945;52.036;8.614;2023-03-17T00:38:00;6.70;99.90
3860;DHT22;1945;52.036;8.614;2023-03-17T00:40:30;6.60;99.90
3860;DHT22;1945;52.036;8.614;2023-03-17T00:43:01;6.60;99.90
3860;DHT22;1945;52.036;8.614;2023-03-17T00:45:37;6.60;99.90
3860;DHT22;1945;52.036;8.614;2023-03-17T00:48:15;6.60;99.90
3860;DHT22;1945;52.036;8.614;2023-03-17T00:50:49;6.50;99.90
3860;DHT22;1945;52.036;8.614;2023-03-17T00:53:23;6.50;99.90
3860;DHT22;1945;52.036;8.614;2023-03-17T00:55:58;6.50;99.90
3860;DHT22;1945;52.036;8.614;2023-03-17T00:58:29;6.60;99.90
3860;DHT22;1945;52.036;8.614;2023-03-17T01:01:04;6.60;99.90
3860;DHT22;1945;52.036;8.614;2023-03-17T01:03:32;6.50;99.90
3860;DHT22;1945;52.036;8.614;2023-03-17T01:06:03;6.40;99.90
3860;DHT22;1945;52.036;8.614;2023-03-17T01:08:35;6.40;99.90
3860;DHT22;1945;52.036;8.614;2023-03-17T01:11:08;6.30;99.90
3860;DHT22;1945;52.036;8.614;2023-03-17T01:13:41;6.30;99.90
3860;DHT22;1945;52.036;8.614;2023-03-17T01:16:14;6.30;99.90
3860;DHT22;1945;52.036;8.614;2023-03-17T01:18:44;6.30;99.90
3860;DHT22;1945;52.036;8.614;2023-03-17T01:21:17;6.30;99.90
3860;DHT22;1945;52.036;8.614;2023-03-17T01:23:48;6.20;99.90
3860;DHT22;1945;52.036;8.614;2023-03-17T01:26:19;6.10;99.90
3860;DHT22;1945;52.036;8.614;2023-03-17T01:28:55;6.10;99.90
3860;DHT22;1945;52.036;8.614;2023-03-17T01:31:26;6.00;99.90
3860;DHT22;1945;52.036;8.614;2023-03-17T01:34:00;6.10;99.90
3860;DHT22;1945;52.036;8.614;2023-03-17T01:36:29;6.00;99.90
3860;DHT22;1945;52.036;8.614;2023-03-17T01:38:59;6.10;99.90
3860;DHT22;1945;52.036;8.614;2023-03-17T01:41:35;6.00;99.90
3860;DHT22;1945;52.036;8.614;2023-03-17T01:44:13;6.00;99.90
3860;DHT22;1945;52.036;8.614;2023-03-17T01:46:48;5.90;99.90
3860;DHT22;1945;52.036;8.614;2023-03-17T01:49:27;5.90;99.90
3860;DHT22;1945;52.036;8.614;2023-03-17T01:52:03;5.80;99.90
3860;DHT22;1945;52.036;8.614;2023-03-17T01:54:41;5.80;99.90
3860;DHT22;1945;52.036;8.614;2023-03-17T01:57:17;5.80;99.90
3860;DHT22;1945;52.036;8.614;2023-03-17T01:59:51;5.80;99.90
3860;DHT22;1945;52.036;8.614;2023-03-17T02:02:25;5.70;99.90
3860;DHT22;1945;52.036;8.614;2023-03-17T02:04:54;5.80;99.90
3860;DHT22;1945;52.036;8.614;2023-03-17T02:07:45;5.80;99.90
3860;DHT22;1945;52.036;8.614;2023-03-17T02:10:22;5.90;99.90
3860;DHT22;1945;52.036;8.614;2023-03-17T02:12:53;5.90;99.90
3860;DHT22;1945;52.036;8.614;2023-03-17T02:15:22;5.90;99.90
3860;DHT22;1945;52.036;8.614;2023-03-17T02:17:58;5.90;99.90
3860;DHT22;1945;52.036;8.614;2023-03-17T02:23:44;5.90;99.90
3860;DHT22;1945;52.036;8.614;2023-03-17T02:26:14;6.00;99.90
3860;DHT22;1945;52.036;8.614;2023-03-17T02:28:57;6.00;99.90
3860;DHT22;1945;52.036;8.614;2023-03-17T02:31:31;6.00;99.90
3860;DHT22;1945;52.036;8.614;2023-03-17T02:34:03;6.00;99.90
3860;DHT22;1945;52.036;8.614;2023-03-17T02:36:36;6.00;99.90
3860;DHT22;1945;52.036;8.614;2023-03-17T02:39:23;6.00;99.90
3860;DHT22;1945;52.036;8.614;2023-03-17T02:41:51;6.10;99.90
3860;DHT22;1945;52.036;8.614;2023-03-17T02:44:20;6.00;99.90
3860;DHT22;1945;52.036;8.614;2023-03-17T02:46:58;6.00;99.90
3860;DHT22;1945;52.036;8.614;2023-03-17T02:49:29;6.00;99.90
3860;DHT22;1945;52.036;8.614;2023-03-17T02:52:05;5.90;99.90
3860;DHT22;1945;52.036;8.614;2023-03-17T02:54:40;5.90;99.90
3860;DHT22;1945;52.036;8.614;2023-03-17T02:57:09;5.80;99.90
3860;DHT22;1945;52.036;8.614;2023-03-17T02:59:42;5.70;99.90
3860;DHT22;1945;52.036;8.614;2023-03-17T03:02:14;5.60;99.90
3860;DHT22;1945;52.036;8.614;2023-03-17T03:04:43;5.60;99.90
3860;DHT22;1945;52.036;8.614;2023-03-17T03:07:16;5.60;99.90
3860;DHT22;1945;52.036;8.614;2023-03-17T03:09:49;5.50;99.90
3860;DHT22;1945;52.036;8.614;2023-03-17T03:12:19;5.50;99.90
3860;DHT22;1945;52.036;8.614;2023-03-17T03:14:52;5.40;99.90
3860;DHT22;1945;52.036;8.614;2023-03-17T03:17:26;5.40;99.90
3860;DHT22;1945;52.036;8.614;2023-03-17T03:19:56;5.40;99.90
3860;DHT22;1945;52.036;8.614;2023-03-17T03:22:30;5.40;99.90
3860;DHT22;1945;52.036;8.614;2023-03-17T03:25:10;5.30;99.90
3860;DHT22;1945;52.036;8.614;2023-03-17T03:27:47;5.30;99.90
3860;DHT22;1945;52.036;8.614;2023-03-17T03:30:14;5.30;99.90
3860;DHT22;1945;52.036;8.614;2023-03-17T03:32:40;5.30;99.90
3860;DHT22;1945;52.036;8.614;2023-03-17T03:35:08;5.30;99.90
3860;DHT22;1945;52.036;8.614;2023-03-17T03:37:34;5.40;99.90
3860;DHT22;1945;52.036;8.614;2023-03-17T03:40:01;5.40;99.90
3860;DHT22;1945;52.036;8.614;2023-03-17T03:42:29;5.40;99.90
3860;DHT22;1945;52.036;8.614;2023-03-17T03:44:56;5.40;99.90
3860;DHT22;1945;52.036;8.614;2023-03-17T03:47:23;5.90;99.90
3860;DHT22;1945;52.036;8.614;2023-03-17T03:49:49;5.60;99.90
3860;DHT22;1945;52.036;8.614;2023-03-17T03:52:16;5.80;99.90
3860;DHT22;1945;52.036;8.614;2023-03-17T03:54:43;5.50;99.90
3860;DHT22;1945;52.036;8.614;2023-03-17T03:57:10;5.60;99.90
3860;DHT22;1945;52.036;8.614;2023-03-17T03:59:38;5.50;99.90
3860;DHT22;1945;52.036;8.614;2023-03-17T04:02:05;5.40;99.90
3860;DHT22;1945;52.036;8.614;2023-03-17T04:04:32;5.50;99.90
3860;DHT22;1945;52.036;8.614;2023-03-17T04:06:59;5.40;99.90
3860;DHT22;1945;52.036;8.614;2023-03-17T04:09:26;5.40;99.90
3860;DHT22;1945;52.036;8.614;2023-03-17T04:11:53;5.60;99.90
3860;DHT22;1945;52.036;8.614;2023-03-17T04:14:20;5.50;99.90
3860;DHT22;1945;52.036;8.614;2023-03-17T04:16:48;5.40;99.90
3860;DHT22;1945;52.036;8.614;2023-03-17T04:19:15;5.40;99.90
3860;DHT22;1945;52.036;8.614;2023-03-17T04:21:42;5.40;99.90
3860;DHT22;1945;52.036;8.614;2023-03-17T04:24:08;5.40;99.90
3860;DHT22;1945;52.036;8.614;2023-03-17T04:26:35;5.50;99.90
3860;DHT22;1945;52.036;8.614;2023-03-17T04:29:02;5.40;99.90
3860;DHT22;1945;52.036;8.614;2023-03-17T04:31:29;5.40;99.90
3860;DHT22;1945;52.036;8.614;2023-03-17T04:33:57;5.40;99.90
3860;DHT22;1945;52.036;8.614;2023-03-17T04:36:23;5.40;99.90
3860;DHT22;1945;52.036;8.614;2023-03-17T04:38:50;5.30;99.90
3860;DHT22;1945;52.036;8.614;2023-03-17T04:41:18;5.20;99.90
3860;DHT22;1945;52.036;8.614;2023-03-17T04:43:45;5.10;99.90
3860;DHT22;1945;52.036;8.614;2023-03-17T04:46:12;5.00;99.90
3860;DHT22;1945;52.036;8.614;2023-03-17T04:48:39;4.90;99.90
3860;DHT22;1945;52.036;8.614;2023-03-17T04:51:07;4.80;99.90
3860;DHT22;1945;52.036;8.614;2023-03-17T04:53:34;5.20;99.90
3860;DHT22;1945;52.036;8.614;2023-03-17T04:56:00;4.80;99.90
3860;DHT22;1945;52.036;8.614;2023-03-17T04:58:27;4.80;99.90
3860;DHT22;1945;52.036;8.614;2023-03-17T05:00:54;4.70;99.90
3860;DHT22;1945;52.036;8.614;2023-03-17T05:03:20;4.60;99.90
3860;DHT22;1945;52.036;8.614;2023-03-17T05:05:47;4.60;99.90
3860;DHT22;1945;52.036;8.614;2023-03-17T05:08:16;4.90;1.00
3860;DHT22;1945;52.036;8.614;2023-03-17T05:10:43;4.40;1.00
3860;DHT22;1945;52.036;8.614;2023-03-17T05:13:09;4.30;1.00
3860;DHT22;1945;52.036;8.614;2023-03-17T05:15:36;4.20;1.00
3860;DHT22;1945;52.036;8.614;2023-03-17T05:18:03;4.10;1.00
3860;DHT22;1945;52.036;8.614;2023-03-17T05:20:29;4.10;1.00
3860;DHT22;1945;52.036;8.614;2023-03-17T05:22:56;4.60;1.00
3860;DHT22;1945;52.036;8.614;2023-03-17T05:25:24;4.10;1.00
3860;DHT22;1945;52.036;8.614;2023-03-17T05:27:51;4.00;1.00
3860;DHT22;1945;52.036;8.614;2023-03-17T05:30:17;3.90;1.00
3860;DHT22;1945;52.036;8.614;2023-03-17T05:32:44;3.90;1.00
3860;DHT22;1945;52.036;8.614;2023-03-17T05:35:11;4.10;1.00
3860;DHT22;1945;52.036;8.614;2023-03-17T05:37:38;3.90;1.00
3860;DHT22;1945;52.036;8.614;2023-03-17T05:40:05;3.90;1.00
3860;DHT22;1945;52.036;8.614;2023-03-17T05:42:34;3.90;1.00
3860;DHT22;1945;52.036;8.614;2023-03-17T05:45:01;4.10;1.00
3860;DHT22;1945;52.036;8.614;2023-03-17T05:47:29;4.00;1.00
3860;DHT22;1945;52.036;8.614;2023-03-17T05:49:56;4.00;1.00
3860;DHT22;1945;52.036;8.614;2023-03-17T05:52:23;4.20;1.00
3860;DHT22;1945;52.036;8.614;2023-03-17T05:54:50;4.10;1.00
3860;DHT22;1945;52.036;8.614;2023-03-17T05:57:18;4.20;1.00
3860;DHT22;1945;52.036;8.614;2023-03-17T05:59:46;4.20;1.00
3860;DHT22;1945;52.036;8.614;2023-03-17T06:02:13;4.30;1.00
3860;DHT22;1945;52.036;8.614;2023-03-17T06:04:40;4.40;1.00
3860;DHT22;1945;52.036;8.614;2023-03-17T06:07:08;4.40;1.00
3860;DHT22;1945;52.036;8.614;2023-03-17T06:09:37;4.60;1.00
3860;DHT22;1945;52.036;8.614;2023-03-17T06:12:05;4.70;1.00
3860;DHT22;1945;52.036;8.614;2023-03-17T06:14:32;5.20;1.00
3860;DHT22;1945;52.036;8.614;2023-03-17T06:17:00;5.40;1.00
3860;DHT22;1945;52.036;8.614;2023-03-17T06:19:27;5.60;1.00
3860;DHT22;1945;52.036;8.614;2023-03-17T06:21:53;5.90;1.00
3860;DHT22;1945;52.036;8.614;2023-03-17T06:24:20;6.50;1.00
3860;DHT22;1945;52.036;8.614;2023-03-17T06:26:47;6.20;99.90
3860;DHT22;1945;52.036;8.614;2023-03-17T06:29:14;6.30;99.90
3860;DHT22;1945;52.036;8.614;2023-03-17T06:31:41;6.40;99.90
3860;DHT22;1945;52.036;8.614;2023-03-17T06:34:15;6.70;99.90
3860;DHT22;1945;52.036;8.614;2023-03-17T06:36:43;7.50;99.90
3860;DHT22;1945;52.036;8.614;2023-03-17T06:39:10;6.70;99.90
3860;DHT22;1945;52.036;8.614;2023-03-17T06:41:37;7.40;99.90
3860;DHT22;1945;52.036;8.614;2023-03-17T06:44:04;6.90;99.90
3860;DHT22;1945;52.036;8.614;2023-03-17T06:46:31;6.90;99.90
3860;DHT22;1945;52.036;8.614;2023-03-17T06:48:58;7.00;99.90
3860;DHT22;1945;52.036;8.614;2023-03-17T06:51:27;7.30;99.90
3860;DHT22;1945;52.036;8.614;2023-03-17T06:53:53;7.50;99.90
3860;DHT22;1945;52.036;8.614;2023-03-17T06:56:20;7.50;99.90
3860;DHT22;1945;52.036;8.614;2023-03-17T06:58:47;7.70;99.90
3860;DHT22;1945;52.036;8.614;2023-03-17T07:01:14;8.00;99.90
3860;DHT22;1945;52.036;8.614;2023-03-17T07:03:41;8.50;99.90
3860;DHT22;1945;52.036;8.614;2023-03-17T07:06:08;7.40;99.90
3860;DHT22;1945;52.036;8.614;2023-03-17T07:08:36;7.80;99.90
3860;DHT22;1945;52.036;8.614;2023-03-17T07:11:03;7.70;99.90
3860;DHT22;1945;52.036;8.614;2023-03-17T07:13:30;7.70;99.90
3860;DHT22;1945;52.036;8.614;2023-03-17T07:15:59;7.90;99.90
3860;DHT22;1945;52.036;8.614;2023-03-17T07:18:27;8.10;99.90
3860;DHT22;1945;52.036;8.614;2023-03-17T07:20:56;8.30;99.90
3860;DHT22;1945;52.036;8.614;2023-03-17T07:23:23;8.40;99.90
3860;DHT22;1945;52.036;8.614;2023-03-17T07:25:51;8.50;99.90
3860;DHT22;1945;52.036;8.614;2023-03-17T07:28:18;8.70;99.90
3860;DHT22;1945;52.036;8.614;2023-03-17T07:30:47;9.00;99.90
3860;DHT22;1945;52.036;8.614;2023-03-17T07:33:14;8.90;99.90
3860;DHT22;1945;52.036;8.614;2023-03-17T07:35:42;8.90;99.90
3860;DHT22;1945;52.036;8.614;2023-03-17T07:38:09;9.10;99.90
3860;DHT22;1945;52.036;8.614;2023-03-17T07:40:36;9.40;99.90
3860;DHT22;1945;52.036;8.614;2023-03-17T07:43:04;9.20;99.90
3860;DHT22;1945;52.036;8.614;2023-03-17T07:45:31;9.50;99.90
3860;DHT22;1945;52.036;8.614;2023-03-17T07:48:00;9.50;99.90
3860;DHT22;1945;52.036;8.614;2023-03-17T07:50:27;9.50;99.90
3860;DHT22;1945;52.036;8.614;2023-03-17T07:52:54;9.50;99.90
3860;DHT22;1945;52.036;8.614;2023-03-17T07:55:21;9.80;99.90
3860;DHT22;1945;52.036;8.614;2023-03-17T07:57:47;10.10;99.90
3860;DHT22;1945;52.036;8.614;2023-03-17T08:00:16;10.30;99.90
3860;DHT22;1945;52.036;8.614;2023-03-17T08:02:44;10.50;99.90
3860;DHT22;1945;52.036;8.614;2023-03-17T08:05:11;10.50;99.90
3860;DHT22;1945;52.036;8.614;2023-03-17T08:07:37;10.50;99.90
3860;DHT22;1945;52.036;8.614;2023-03-17T08:10:05;10.60;99.90
3860;DHT22;1945;52.036;8.614;2023-03-17T08:12:32;10.50;99.90
3860;DHT22;1945;52.036;8.614;2023-03-17T08:14:59;10.70;99.90
3860;DHT22;1945;52.036;8.614;2023-03-17T08:17:27;11.10;99.90
3860;DHT22;1945;52.036;8.614;2023-03-17T08:19:54;11.30;99.90
3860;DHT22;1945;52.036;8.614;2023-03-17T08:22:21;10.90;99.90
3860;DHT22;1945;52.036;8.614;2023-03-17T08:24:49;11.10;99.90
3860;DHT22;1945;52.036;8.614;2023-03-17T08:27:16;11.20;99.90
3860;DHT22;1945;52.036;8.614;2023-03-17T08:29:43;11.10;99.90
3860;DHT22;1945;52.036;8.614;2023-03-17T08:32:10;11.10;93.90
3860;DHT22;1945;52.036;8.614;2023-03-17T08:34:39;11.20;99.90
3860;DHT22;1945;52.036;8.614;2023-03-17T08:37:06;11.10;99.90
3860;DHT22;1945;52.036;8.614;2023-03-17T08:39:32;11.10;99.90
3860;DHT22;1945;52.036;8.614;2023-03-17T08:41:59;11.20;99.90
3860;DHT22;1945;52.036;8.614;2023-03-17T08:44:26;11.20;99.90
3860;DHT22;1945;52.036;8.614;2023-03-17T08:46:52;11.20;99.90
3860;DHT22;1945;52.036;8.614;2023-03-17T08:49:19;11.20;99.90
3860;DHT22;1945;52.036;8.614;2023-03-17T08:51:47;11.30;99.90
3860;DHT22;1945;52.036;8.614;2023-03-17T08:54:14;11.40;99.90
3860;DHT22;1945;52.036;8.614;2023-03-17T08:56:41;11.50;99.90
3860;DHT22;1945;52.036;8.614;2023-03-17T08:59:08;11.70;99.90
3860;DHT22;1945;52.036;8.614;2023-03-17T09:01:35;12.00;99.90
3860;DHT22;1945;52.036;8.614;2023-03-17T09:04:02;12.10;99.90
3860;DHT22;1945;52.036;8.614;2023-03-17T09:06:29;12.20;99.90
3860;DHT22;1945;52.036;8.614;2023-03-17T09:08:57;12.20;99.90
3860;DHT22;1945;52.036;8.614;2023-03-17T09:11:26;12.10;99.90
3860;DHT22;1945;52.036;8.614;2023-03-17T09:13:54;12.20;99.90
3860;DHT22;1945;52.036;8.614;2023-03-17T09:16:21;12.40;99.90
3860;DHT22;1945;52.036;8.614;2023-03-17T09:18:48;12.50;99.90
3860;DHT22;1945;52.036;8.614;2023-03-17T09:21:16;12.60;99.90
3860;DHT22;1945;52.036;8.614;2023-03-17T09:23:42;12.30;99.90
3860;DHT22;1945;52.036;8.614;2023-03-17T09:26:11;12.90;99.90
3860;DHT22;1945;52.036;8.614;2023-03-17T09:28:38;12.90;99.90
3860;DHT22;1945;52.036;8.614;2023-03-17T09:31:05;12.90;99.90
3860;DHT22;1945;52.036;8.614;2023-03-17T09:33:36;13.00;99.90
3860;DHT22;1945;52.036;8.614;2023-03-17T09:36:03;12.90;99.90
3860;DHT22;1945;52.036;8.614;2023-03-17T09:38:30;12.90;99.90
3860;DHT22;1945;52.036;8.614;2023-03-17T09:41:02;13.10;99.90
3860;DHT22;1945;52.036;8.614;2023-03-17T09:43:38;13.10;99.90
3860;DHT22;1945;52.036;8.614;2023-03-17T09:46:15;13.20;99.90
3860;DHT22;1945;52.036;8.614;2023-03-17T09:48:50;13.50;1.00
3860;DHT22;1945;52.036;8.614;2023-03-17T09:51:19;13.60;99.90
3860;DHT22;1945;52.036;8.614;2023-03-17T09:53:51;13.70;1.00
3860;DHT22;1945;52.036;8.614;2023-03-17T09:56:19;13.70;1.00
3860;DHT22;1945;52.036;8.614;2023-03-17T09:58:52;13.70;1.00
3860;DHT22;1945;52.036;8.614;2023-03-17T10:01:21;13.80;1.00
3860;DHT22;1945;52.036;8.614;2023-03-17T10:03:48;13.90;1.00
3860;DHT22;1945;52.036;8.614;2023-03-17T10:06:30;13.90;1.00
3860;DHT22;1945;52.036;8.614;2023-03-17T10:09:14;13.90;1.00
3860;DHT22;1945;52.036;8.614;2023-03-17T10:11:43;14.00;1.00
3860;DHT22;1945;52.036;8.614;2023-03-17T10:17:13;14.30;1.00
3860;DHT22;1945;52.036;8.614;2023-03-17T10:19:44;14.20;1.00
3860;DHT22;1945;52.036;8.614;2023-03-17T10:22:16;14.30;1.00
3860;DHT22;1945;52.036;8.614;2023-03-17T10:24:51;14.40;1.00
3860;DHT22;1945;52.036;8.614;2023-03-17T10:27:18;14.60;1.00
3860;DHT22;1945;52.036;8.614;2023-03-17T10:29:47;14.60;1.00
3860;DHT22;1945;52.036;8.614;2023-03-17T10:32:14;14.80;1.00
3860;DHT22;1945;52.036;8.614;2023-03-17T10:34:42;14.90;1.00
3860;DHT22;1945;52.036;8.614;2023-03-17T10:37:12;15.00;1.00
3860;DHT22;1945;52.036;8.614;2023-03-17T10:39:46;15.00;1.00
3860;DHT22;1945;52.036;8.614;2023-03-17T10:42:22;15.00;1.00
3860;DHT22;1945;52.036;8.614;2023-03-17T10:44:53;15.30;1.00
3860;DHT22;1945;52.036;8.614;2023-03-17T10:47:29;15.40;1.00
3860;DHT22;1945;52.036;8.614;2023-03-17T10:49:58;15.40;1.00
3860;DHT22;1945;52.036;8.614;2023-03-17T10:52:27;15.40;1.00
3860;DHT22;1945;52.036;8.614;2023-03-17T10:54:55;15.50;1.00
3860;DHT22;1945;52.036;8.614;2023-03-17T10:57:26;15.60;1.00
3860;DHT22;1945;52.036;8.614;2023-03-17T10:59:56;15.50;1.00
3860;DHT22;1945;52.036;8.614;2023-03-17T11:02:25;15.50;1.00
3860;DHT22;1945;52.036;8.614;2023-03-17T11:04:54;15.60;1.00
3860;DHT22;1945;52.036;8.614;2023-03-17T11:07:27;15.80;1.00
3860;DHT22;1945;52.036;8.614;2023-03-17T11:09:57;15.90;1.00
3860;DHT22;1945;52.036;8.614;2023-03-17T11:12:26;16.10;1.00
3860;DHT22;1945;52.036;8.614;2023-03-17T11:14:59;16.20;1.00
3860;DHT22;1945;52.036;8.614;2023-03-17T11:17:37;16.10;1.00
3860;DHT22;1945;52.036;8.614;2023-03-17T11:20:23;16.00;1.00
3860;DHT22;1945;52.036;8.614;2023-03-17T11:22:58;16.10;1.00
3860;DHT22;1945;52.036;8.614;2023-03-17T11:25:27;16.20;1.00
3860;DHT22;1945;52.036;8.614;2023-03-17T11:28:04;16.30;1.00
3860;DHT22;1945;52.036;8.614;2023-03-17T11:30:37;16.30;1.00
3860;DHT22;1945;52.036;8.614;2023-03-17T11:33:12;16.30;1.00
3860;DHT22;1945;52.036;8.614;2023-03-17T11:35:48;16.30;1.00
3860;DHT22;1945;52.036;8.614;2023-03-17T11:38:21;16.30;1.00
3860;DHT22;1945;52.036;8.614;2023-03-17T11:41:18;16.20;1.00
3860;DHT22;1945;52.036;8.614;2023-03-17T11:43:57;16.20;1.00
3860;DHT22;1945;52.036;8.614;2023-03-17T11:46:31;16.20;1.00
3860;DHT22;1945;52.036;8.614;2023-03-17T11:49:06;16.30;1.00
3860;DHT22;1945;52.036;8.614;2023-03-17T11:51:46;16.20;1.00
3860;DHT22;1945;52.036;8.614;2023-03-17T11:54:20;16.20;1.00
3860;DHT22;1945;52.036;8.614;2023-03-17T11:56:51;16.20;1.00
3860;DHT22;1945;52.036;8.614;2023-03-17T11:59:26;16.30;1.00
3860;DHT22;1945;52.036;8.614;2023-03-17T12:02:00;16.40;1.00
3860;DHT22;1945;52.036;8.614;2023-03-17T12:04:31;16.50;1.00
3860;DHT22;1945;52.036;8.614;2023-03-17T12:07:05;16.50;1.00
3860;DHT22;1945;52.036;8.614;2023-03-17T12:09:37;16.60;1.00
3860;DHT22;1945;52.036;8.614;2023-03-17T12:12:07;16.60;1.00
3860;DHT22;1945;52.036;8.614;2023-03-17T12:14:38;16.50;1.00
3860;DHT22;1945;52.036;8.614;2023-03-17T12:17:11;16.50;1.00
3860;DHT22;1945;52.036;8.614;2023-03-17T12:19:44;16.50;1.00
3860;DHT22;1945;52.036;8.614;2023-03-17T12:22:22;16.60;1.00
3860;DHT22;1945;52.036;8.614;2023-03-17T12:25:02;16.80;1.00
3860;DHT22;1945;52.036;8.614;2023-03-17T12:27:31;16.90;1.00
3860;DHT22;1945;52.036;8.614;2023-03-17T12:30:02;17.10;1.00
3860;DHT22;1945;52.036;8.614;2023-03-17T12:32:38;17.20;1.00
3860;DHT22;1945;52.036;8.614;2023-03-17T12:35:22;17.20;1.00
3860;DHT22;1945;52.036;8.614;2023-03-17T12:37:50;17.40;1.00
3860;DHT22;1945;52.036;8.614;2023-03-17T12:40:20;17.50;1.00
3860;DHT22;1945;52.036;8.614;2023-03-17T12:42:50;17.40;1.00
3860;DHT22;1945;52.036;8.614;2023-03-17T12:45:32;17.30;1.00
3860;DHT22;1945;52.036;8.614;2023-03-17T12:48:36;17.20;1.00
3860;DHT22;1945;52.036;8.614;2023-03-17T12:51:29;17.20;1.00
3860;DHT22;1945;52.036;8.614;2023-03-17T12:53:59;17.30;1.00
3860;DHT22;1945;52.036;8.614;2023-03-17T12:56:28;17.30;1.00
3860;DHT22;1945;52.036;8.614;2023-03-17T12:59:00;17.30;1.00
3860;DHT22;1945;52.036;8.614;2023-03-17T13:01:30;17.30;1.00
3860;DHT22;1945;52.036;8.614;2023-03-17T13:04:17;17.40;1.00
3860;DHT22;1945;52.036;8.614;2023-03-17T13:06:55;17.40;1.00
3860;DHT22;1945;52.036;8.614;2023-03-17T13:09:32;17.50;1.00
3860;DHT22;1945;52.036;8.614;2023-03-17T13:12:01;17.50;1.00
3860;DHT22;1945;52.036;8.614;2023-03-17T13:14:39;17.50;1.00
3860;DHT22;1945;52.036;8.614;2023-03-17T13:17:31;17.40;1.00
3860;DHT22;1945;52.036;8.614;2023-03-17T13:20:11;17.40;1.00
3860;DHT22;1945;52.036;8.614;2023-03-17T13:22:41;17.50;1.00
3860;DHT22;1945;52.036;8.614;2023-03-17T13:25:17;17.50;1.00
3860;DHT22;1945;52.036;8.614;2023-03-17T13:27:52;17.50;1.00
3860;DHT22;1945;52.036;8.614;2023-03-17T13:33:29;17.70;1.00
3860;DHT22;1945;52.036;8.614;2023-03-17T13:36:14;17.60;1.00
3860;DHT22;1945;52.036;8.614;2023-03-17T13:39:00;17.60;1.00
3860;DHT22;1945;52.036;8.614;2023-03-17T13:41:50;17.70;1.00
3860;DHT22;1945;52.036;8.614;2023-03-17T13:44:30;17.60;1.00
3860;DHT22;1945;52.036;8.614;2023-03-17T13:47:14;17.70;1.00
3860;DHT22;1945;52.036;8.614;2023-03-17T13:49:46;17.60;1.00
3860;DHT22;1945;52.036;8.614;2023-03-17T13:52:23;17.60;1.00
3860;DHT22;1945;52.036;8.614;2023-03-17T13:55:00;17.60;1.00
3860;DHT22;1945;52.036;8.614;2023-03-17T13:57:28;17.60;1.00
3860;DHT22;1945;52.036;8.614;2023-03-17T14:00:00;17.60;1.00
3860;DHT22;1945;52.036;8.614;2023-03-17T14:02:30;17.60;1.00
3860;DHT22;1945;52.036;8.614;2023-03-17T14:04:59;17.60;1.00
3860;DHT22;1945;52.036;8.614;2023-03-17T14:07:31;17.60;1.00
3860;DHT22;1945;52.036;8.614;2023-03-17T14:10:04;17.60;1.00
3860;DHT22;1945;52.036;8.614;2023-03-17T14:12:37;17.60;1.00
3860;DHT22;1945;52.036;8.614;2023-03-17T14:15:10;17.70;1.00
3860;DHT22;1945;52.036;8.614;2023-03-17T14:17:42;17.70;1.00
3860;DHT22;1945;52.036;8.614;2023-03-17T14:20:20;17.80;1.00
3860;DHT22;1945;52.036;8.614;2023-03-17T14:22:54;17.70;1.00
3860;DHT22;1945;52.036;8.614;2023-03-17T14:25:23;17.60;1.00
3860;DHT22;1945;52.036;8.614;2023-03-17T14:27:51;17.50;1.00
3860;DHT22;1945;52.036;8.614;2023-03-17T14:30:20;17.50;1.00
3860;DHT22;1945;52.036;8.614;2023-03-17T14:32:50;17.20;1.00
3860;DHT22;1945;52.036;8.614;2023-03-17T14:35:18;17.40;1.00
3860;DHT22;1945;52.036;8.614;2023-03-17T14:37:46;17.40;1.00
3860;DHT22;1945;52.036;8.614;2023-03-17T14:40:22;17.40;1.00
3860;DHT22;1945;52.036;8.614;2023-03-17T14:42:49;17.40;1.00
3860;DHT22;1945;52.036;8.614;2023-03-17T14:45:21;17.30;1.00
3860;DHT22;1945;52.036;8.614;2023-03-17T14:47:48;17.20;1.00
3860;DHT22;1945;52.036;8.614;2023-03-17T14:50:22;17.20;1.00
3860;DHT22;1945;52.036;8.614;2023-03-17T14:52:50;17.20;1.00
3860;DHT22;1945;52.036;8.614;2023-03-17T14:55:17;17.20;1.00
3860;DHT22;1945;52.036;8.614;2023-03-17T14:57:50;17.10;1.00
3860;DHT22;1945;52.036;8.614;2023-03-17T15:00:31;17.10;1.00
3860;DHT22;1945;52.036;8.614;2023-03-17T15:02:59;17.10;1.00
3860;DHT22;1945;52.036;8.614;2023-03-17T15:05:33;17.10;1.00
3860;DHT22;1945;52.036;8.614;2023-03-17T15:08:02;17.00;1.00
3860;DHT22;1945;52.036;8.614;2023-03-17T15:10:49;17.00;1.00
3860;DHT22;1945;52.036;8.614;2023-03-17T15:13:17;16.90;1.00
3860;DHT22;1945;52.036;8.614;2023-03-17T15:15:44;16.80;1.00
3860;DHT22;1945;52.036;8.614;2023-03-17T15:18:12;16.80;1.00
3860;DHT22;1945;52.036;8.614;2023-03-17T15:20:42;16.70;1.00
3860;DHT22;1945;52.036;8.614;2023-03-17T15:23:14;16.60;1.00
3860;DHT22;1945;52.036;8.614;2023-03-17T15:25:43;16.50;1.00
3860;DHT22;1945;52.036;8.614;2023-03-17T15:28:11;16.30;1.00
3860;DHT22;1945;52.036;8.614;2023-03-17T15:30:40;16.30;1.00
3860;DHT22;1945;52.036;8.614;2023-03-17T15:33:16;16.20;1.00
3860;DHT22;1945;52.036;8.614;2023-03-17T15:35:45;16.10;1.00
3860;DHT22;1945;52.036;8.614;2023-03-17T15:38:12;15.90;1.00
3860;DHT22;1945;52.036;8.614;2023-03-17T15:40:39;16.00;1.00
3860;DHT22;1945;52.036;8.614;2023-03-17T15:43:05;16.00;1.00
3860;DHT22;1945;52.036;8.614;2023-03-17T15:45:32;15.90;1.00
3860;DHT22;1945;52.036;8.614;2023-03-17T15:48:03;15.80;1.00
3860;DHT22;1945;52.036;8.614;2023-03-17T15:50:31;15.70;1.00
3860;DHT22;1945;52.036;8.614;2023-03-17T15:52:58;15.70;1.00
3860;DHT22;1945;52.036;8.614;2023-03-17T15:55:26;15.70;1.00
3860;DHT22;1945;52.036;8.614;2023-03-17T15:57:55;15.60;1.00
3860;DHT22;1945;52.036;8.614;2023-03-17T16:00:23;15.60;1.00
3860;DHT22;1945;52.036;8.614;2023-03-17T16:02:52;15.60;1.00
3860;DHT22;1945;52.036;8.614;2023-03-17T16:05:22;15.60;1.00
3860;DHT22;1945;52.036;8.614;2023-03-17T16:07:49;15.50;1.00
3860;DHT22;1945;52.036;8.614;2023-03-17T16:10:19;15.40;1.00
3860;DHT22;1945;52.036;8.614;2023-03-17T16:12:46;15.40;1.00
3860;DHT22;1945;52.036;8.614;2023-03-17T16:15:14;15.30;1.00
3860;DHT22;1945;52.036;8.614;2023-03-17T16:17:41;15.20;1.00
3860;DHT22;1945;52.036;8.614;2023-03-17T16:20:18;15.20;1.00
3860;DHT22;1945;52.036;8.614;2023-03-17T16:22:48;15.20;1.00
3860;DHT22;1945;52.036;8.614;2023-03-17T16:25:20;15.10;1.00
3860;DHT22;1945;52.036;8.614;2023-03-17T16:27:49;15.00;1.00
3860;DHT22;1945;52.036;8.614;2023-03-17T16:30:18;15.00;1.00
3860;DHT22;1945;52.036;8.614;2023-03-17T16:32:46;14.90;1.00
3860;DHT22;1945;52.036;8.614;2023-03-17T16:35:14;14.90;1.00
3860;DHT22;1945;52.036;8.614;2023-03-17T16:37:41;14.80;1.00
3860;DHT22;1945;52.036;8.614;2023-03-17T16:40:17;14.70;1.00
3860;DHT22;1945;52.036;8.614;2023-03-17T16:42:45;14.70;1.00
3860;DHT22;1945;52.036;8.614;2023-03-17T16:45:25;14.70;1.00
3860;DHT22;1945;52.036;8.614;2023-03-17T16:47:53;14.60;1.00
3860;DHT22;1945;52.036;8.614;2023-03-17T16:50:22;14.50;1.00
3860;DHT22;1945;52.036;8.614;2023-03-17T16:52:49;14.50;1.00